sensor_id;sensor_type;location;lat;lon;timestamp;pressure;altitude;pressure_sealevel;temperature;humidity
10881;BME280;5493;48.884;8.338;2024-01-11T00:01:37;101317.84;;;-2.10;100.00
10881;BME280;5493;48.884;8.338;2024-01-11T00:04:03;101323.25;;;-2.11;100.00
10881;BME280;5493;48.884;8.338;2024-01-11T00:06:30;101323.38;;;-2.36;100.00
10881;BME280;5493;48.884;8.338;2024-01-11T00:08:58;101317.34;;;-2.38;100.00
10881;BME280;5493;48.884;8.338;2024-01-11T00:11:24;101319.53;;;-2.09;100.00
10881;BME280;5493;48.884;8.338;2024-01-11T00:13:51;101314.19;;;-2.20;100.00
10881;BME280;5493;48.884;8.338;2024-01-11T00:16:18;101314.94;;;-2.18;100.00
10881;BME280;5493;48.884;8.338;2024-01-11T00:18:44;101322.47;;;-2.24;100.00
10881;BME280;5493;48.884;8.338;2024-01-11T00:21:11;101323.13;;;-2.33;100.00
10881;BME280;5493;48.884;8.338;2024-01-11T00:23:37;101320.94;;;-2.39;100.00
10881;BME280;5493;48.884;8.338;2024-01-11T00:26:05;101317.16;;;-2.48;100.00
10881;BME280;5493;48.884;8.338;2024-01-11T00:28:31;101320.59;;;-2.35;100.00
10881;BME280;5493;48.884;8.338;2024-01-11T00:30:58;101319.16;;;-2.39;100.00
10881;BME280;5493;48.884;8.338;2024-01-11T00:33:24;101309.25;;;-2.48;100.00
10881;BME280;5493;48.884;8.338;2024-01-11T00:35:51;101314.44;;;-2.46;100.00
10881;BME280;5493;48.884;8.338;2024-01-11T00:38:17;101322.66;;;-2.51;100.00
10881;BME280;5493;48.884;8.338;2024-01-11T00:40:44;101307.69;;;-2.51;100.00
10881;BME280;5493;48.884;8.338;2024-01-11T00:43:11;101313.28;;;-2.55;100.00
10881;BME280;5493;48.884;8.338;2024-01-11T00:45:38;101316.47;;;-2.63;100.00
10881;BME280;5493;48.884;8.338;2024-01-11T00:48:05;101313.44;;;-2.69;100.00
10881;BME280;5493;48.884;8.338;2024-01-11T00:50:31;101318.03;;;-2.60;100.00
10881;BME280;5493;48.884;8.338;2024-01-11T00:52:57;101313.75;;;-2.74;100.00
10881;BME280;5493;48.884;8.338;2024-01-11T00:55:24;101312.72;;;-2.84;100.00
10881;BME280;5493;48.884;8.338;2024-01-11T00:57:51;101324.44;;;-2.88;100.00
10881;BME280;5493;48.884;8.338;2024-01-11T01:00:19;101328.66;;;-2.85;100.00
10881;BME280;5493;48.884;8.338;2024-01-11T01:02:45;101319.69;;;-2.95;100.00
10881;BME280;5493;48.884;8.338;2024-01-11T01:05:12;101324.75;;;-2.92;100.00
10881;BME280;5493;48.884;8.338;2024-01-11T01:07:38;101317.81;;;-2.93;100.00
10881;BME280;5493;48.884;8.338;2024-01-11T01:10:06;101322.59;;;-3.11;100.00
10881;BME280;5493;48.884;8.338;2024-01-11T01:12:33;101322.13;;;-2.92;100.00
10881;BME280;5493;48.884;8.338;2024-01-11T01:14:59;101309.56;;;-2.89;100.00
10881;BME280;5493;48.884;8.338;2024-01-11T01:17:27;101317.81;;;-2.93;100.00
10881;BME280;5493;48.884;8.338;2024-01-11T01:19:54;101316.00;;;-2.93;100.00
10881;BME280;5493;48.884;8.338;2024-01-11T01:22:20;101321.72;;;-2.86;100.00
10881;BME280;5493;48.884;8.338;2024-01-11T01:24:47;101321.16;;;-2.79;100.00
10881;BME280;5493;48.884;8.338;2024-01-11T01:27:13;101320.09;;;-2.89;100.00
10881;BME280;5493;48.884;8.338;2024-01-11T01:29:39;101319.06;;;-2.99;100.00
10881;BME280;5493;48.884;8.338;2024-01-11T01:32:06;101326.44;;;-2.79;100.00
10881;BME280;5493;48.884;8.338;2024-01-11T01:34:34;101324.63;;;-2.66;100.00
10881;BME280;5493;48.884;8.338;2024-01-11T01:37:00;101318.19;;;-2.74;100.00
10881;BME280;5493;48.884;8.338;2024-01-11T01:39:26;101326.31;;;-2.77;100.00
10881;BME280;5493;48.884;8.338;2024-01-11T01:41:53;101338.69;;;-2.90;100.00
10881;BME280;5493;48.884;8.338;2024-01-11T01:44:19;101341.03;;;-2.86;100.00
10881;BME280;5493;48.884;8.338;2024-01-11T01:46:47;101337.63;;;-2.88;100.00
10881;BME280;5493;48.884;8.338;2024-01-11T01:49:13;101337.53;;;-2.99;100.00
10881;BME280;5493;48.884;8.338;2024-01-11T01:51:45;101336.59;;;-2.98;100.00
10881;BME280;5493;48.884;8.338;2024-01-11T01:54:12;101344.38;;;-2.97;100.00
10881;BME280;5493;48.884;8.338;2024-01-11T01:56:38;101342.41;;;-3.06;100.00
10881;BME280;5493;48.884;8.338;2024-01-11T01:59:05;101348.63;;;-2.94;100.00
10881;BME280;5493;48.884;8.338;2024-01-11T02:01:32;101349.59;;;-3.08;100.00
10881;BME280;5493;48.884;8.338;2024-01-11T02:03:59;101353.28;;;-2.97;100.00
10881;BME280;5493;48.884;8.338;2024-01-11T02:06:27;101348.63;;;-2.94;100.00
10881;BME280;5493;48.884;8.338;2024-01-11T02:08:58;101346.09;;;-2.95;100.00
10881;BME280;5493;48.884;8.338;2024-01-11T02:11:25;101355.28;;;-3.01;100.00
10881;BME280;5493;48.884;8.338;2024-01-11T02:13:53;101341.44;;;-2.92;100.00
10881;BME280;5493;48.884;8.338;2024-01-11T02:16:19;101343.34;;;-2.94;100.00
10881;BME280;5493;48.884;8.338;2024-01-11T02:18:49;101343.84;;;-2.89;100.00
10881;BME280;5493;48.884;8.338;2024-01-11T02:21:16;101348.00;;;-2.97;100.00
10881;BME280;5493;48.884;8.338;2024-01-11T02:23:44;101341.03;;;-2.86;100.00
10881;BME280;5493;48.884;8.338;2024-01-11T02:26:14;101343.66;;;-2.86;100.00
10881;BME280;5493;48.884;8.338;2024-01-11T02:28:43;101351.84;;;-2.65;100.00
10881;BME280;5493;48.884;8.338;2024-01-11T02:31:10;101349.66;;;-2.84;100.00
10881;BME280;5493;48.884;8.338;2024-01-11T02:33:37;101347.91;;;-2.60;100.00
10881;BME280;5493;48.884;8.338;2024-01-11T02:36:04;101337.38;;;-2.60;100.00
10881;BME280;5493;48.884;8.338;2024-01-11T02:38:31;101341.16;;;-2.51;100.00
10881;BME280;5493;48.884;8.338;2024-01-11T02:40:59;101342.09;;;-2.52;100.00
10881;BME280;5493;48.884;8.338;2024-01-11T02:43:27;101343.78;;;-2.51;100.00
10881;BME280;5493;48.884;8.338;2024-01-11T02:45:54;101348.63;;;-2.45;100.00
10881;BME280;5493;48.884;8.338;2024-01-11T02:48:20;101339.13;;;-2.47;100.00
10881;BME280;5493;48.884;8.338;2024-01-11T02:50:47;101343.75;;;-2.38;100.00
10881;BME280;5493;48.884;8.338;2024-01-11T02:53:13;101351.66;;;-2.38;100.00
10881;BME280;5493;48.884;8.338;2024-01-11T02:55:40;101349.91;;;-2.51;100.00
10881;BME280;5493;48.884;8.338;2024-01-11T02:58:06;101343.56;;;-2.48;100.00
10881;BME280;5493;48.884;8.338;2024-01-11T03:00:34;101346.97;;;-2.46;100.00
10881;BME280;5493;48.884;8.338;2024-01-11T03:03:00;101343.81;;;-2.64;100.00
10881;BME280;5493;48.884;8.338;2024-01-11T03:05:27;101335.06;;;-2.64;100.00
10881;BME280;5493;48.884;8.338;2024-01-11T03:07:53;101333.56;;;-2.56;100.00
10881;BME280;5493;48.884;8.338;2024-01-11T03:10:20;101336.09;;;-2.54;100.00
10881;BME280;5493;48.884;8.338;2024-01-11T03:12:47;101332.72;;;-2.56;100.00
10881;BME280;5493;48.884;8.338;2024-01-11T03:15:14;101329.59;;;-2.74;100.00
10881;BME280;5493;48.884;8.338;2024-01-11T03:17:42;101325.59;;;-2.79;100.00
10881;BME280;5493;48.884;8.338;2024-01-11T03:20:09;101321.41;;;-2.94;100.00
10881;BME280;5493;48.884;8.338;2024-01-11T03:22:36;101323.81;;;-2.91;100.00
10881;BME280;5493;48.884;8.338;2024-01-11T03:25:02;101325.06;;;-2.84;100.00
10881;BME280;5493;48.884;8.338;2024-01-11T03:27:29;101316.88;;;-3.05;100.00
10881;BME280;5493;48.884;8.338;2024-01-11T03:29:55;101314.88;;;-3.02;100.00
10881;BME280;5493;48.884;8.338;2024-01-11T03:32:22;101319.72;;;-3.08;100.00
10881;BME280;5493;48.884;8.338;2024-01-11T03:34:50;101320.75;;;-3.11;100.00
10881;BME280;5493;48.884;8.338;2024-01-11T03:37:16;101321.00;;;-3.01;100.00
10881;BME280;5493;48.884;8.338;2024-01-11T03:39:43;101323.84;;;-3.04;100.00
10881;BME280;5493;48.884;8.338;2024-01-11T03:42:09;101325.28;;;-3.00;100.00
10881;BME280;5493;48.884;8.338;2024-01-11T03:44:36;101320.25;;;-3.16;100.00
10881;BME280;5493;48.884;8.338;2024-01-11T03:47:03;101326.38;;;-3.15;100.00
10881;BME280;5493;48.884;8.338;2024-01-11T03:49:29;101321.50;;;-3.21;100.00
10881;BME280;5493;48.884;8.338;2024-01-11T03:51:57;101319.00;;;-3.23;100.00
10881;BME280;5493;48.884;8.338;2024-01-11T03:54:23;101326.06;;;-3.23;100.00
10881;BME280;5493;48.884;8.338;2024-01-11T03:56:50;101325.75;;;-3.19;100.00
10881;BME280;5493;48.884;8.338;2024-01-11T03:59:16;101325.66;;;-3.30;100.00
10881;BME280;5493;48.884;8.338;2024-01-11T04:01:43;101317.75;;;-3.30;100.00
10881;BME280;5493;48.884;8.338;2024-01-11T04:04:10;101317.31;;;-3.36;100.00
10881;BME280;5493;48.884;8.338;2024-01-11T04:06:37;101316.59;;;-3.26;100.00
10881;BME280;5493;48.884;8.338;2024-01-11T04:09:05;101318.03;;;-3.22;100.00
10881;BME280;5493;48.884;8.338;2024-01-11T04:11:31;101315.22;;;-3.44;100.00
10881;BME280;5493;48.884;8.338;2024-01-11T04:13:58;101314.25;;;-3.30;100.00
10881;BME280;5493;48.884;8.338;2024-01-11T04:16:24;101315.41;;;-3.34;100.00
10881;BME280;5493;48.884;8.338;2024-01-11T04:18:51;101316.47;;;-3.24;100.00
10881;BME280;5493;48.884;8.338;2024-01-11T04:21:21;101314.13;;;-3.29;100.00
10881;BME280;5493;48.884;8.338;2024-01-11T04:23:47;101313.00;;;-3.37;100.00
10881;BME280;5493;48.884;8.338;2024-01-11T04:26:15;101310.97;;;-3.47;100.00
10881;BME280;5493;48.884;8.338;2024-01-11T04:28:43;101305.06;;;-3.25;100.00
10881;BME280;5493;48.884;8.338;2024-01-11T04:31:09;101315.72;;;-3.39;100.00
10881;BME280;5493;48.884;8.338;2024-01-11T04:33:36;101307.41;;;-3.45;100.00
10881;BME280;5493;48.884;8.338;2024-01-11T04:36:05;101316.66;;;-3.40;100.00
10881;BME280;5493;48.884;8.338;2024-01-11T04:38:32;101308.75;;;-3.40;100.00
10881;BME280;5493;48.884;8.338;2024-01-11T04:40:58;101310.22;;;-3.36;100.00
10881;BME280;5493;48.884;8.338;2024-01-11T04:43:26;101314.88;;;-3.39;100.00
10881;BME280;5493;48.884;8.338;2024-01-11T04:45:53;101314.78;;;-3.38;100.00
10881;BME280;5493;48.884;8.338;2024-01-11T04:48:19;101319.28;;;-3.40;100.00
10881;BME280;5493;48.884;8.338;2024-01-11T04:50:46;101319.41;;;-3.41;100.00
10881;BME280;5493;48.884;8.338;2024-01-11T04:53:12;101321.63;;;-3.48;100.00
10881;BME280;5493;48.884;8.338;2024-01-11T04:55:39;101313.81;;;-3.50;100.00
10881;BME280;5493;48.884;8.338;2024-01-11T04:58:05;101314.69;;;-3.36;100.00
10881;BME280;5493;48.884;8.338;2024-01-11T05:00:33;101319.63;;;-3.32;100.00
10881;BME280;5493;48.884;8.338;2024-01-11T05:03:00;101321.13;;;-3.40;100.00
10881;BME280;5493;48.884;8.338;2024-01-11T05:05:26;101326.47;;;-3.42;100.00
10881;BME280;5493;48.884;8.338;2024-01-11T05:07:53;101325.75;;;-3.31;100.00
10881;BME280;5493;48.884;8.338;2024-01-11T05:10:19;101324.47;;;-3.38;100.00
10881;BME280;5493;48.884;8.338;2024-01-11T05:12:47;101324.56;;;-3.53;100.00
10881;BME280;5493;48.884;8.338;2024-01-11T05:15:13;101325.72;;;-3.57;100.00
10881;BME280;5493;48.884;8.338;2024-01-11T05:17:41;101332.47;;;-3.40;100.00
10881;BME280;5493;48.884;8.338;2024-01-11T05:20:08;101326.38;;;-3.40;100.00
10881;BME280;5493;48.884;8.338;2024-01-11T05:22:36;101336.81;;;-3.39;100.00
10881;BME280;5493;48.884;8.338;2024-01-11T05:25:02;101332.38;;;-3.38;100.00
10881;BME280;5493;48.884;8.338;2024-01-11T05:27:29;101334.38;;;-3.42;100.00
10881;BME280;5493;48.884;8.338;2024-01-11T05:29:55;101333.53;;;-3.55;100.00
10881;BME280;5493;48.884;8.338;2024-01-11T05:32:22;101344.72;;;-3.52;100.00
10881;BME280;5493;48.884;8.338;2024-01-11T05:34:50;101347.44;;;-3.53;100.00
10881;BME280;5493;48.884;8.338;2024-01-11T05:37:16;101348.50;;;-3.43;100.00
10881;BME280;5493;48.884;8.338;2024-01-11T05:39:43;101350.00;;;-3.52;100.00
10881;BME280;5493;48.884;8.338;2024-01-11T05:42:09;101356.09;;;-3.38;100.00
10881;BME280;5493;48.884;8.338;2024-01-11T05:44:36;101356.41;;;-3.43;100.00
10881;BME280;5493;48.884;8.338;2024-01-11T05:47:02;101367.94;;;-3.44;100.00
10881;BME280;5493;48.884;8.338;2024-01-11T05:49:29;101362.84;;;-3.47;100.00
10881;BME280;5493;48.884;8.338;2024-01-11T05:51:57;101364.19;;;-3.54;100.00
10881;BME280;5493;48.884;8.338;2024-01-11T05:54:23;101359.59;;;-3.38;100.00
10881;BME280;5493;48.884;8.338;2024-01-11T05:56:51;101356.84;;;-3.24;100.00
10881;BME280;5493;48.884;8.338;2024-01-11T05:59:21;101360.16;;;-3.08;100.00
10881;BME280;5493;48.884;8.338;2024-01-11T06:01:47;101360.88;;;-3.06;100.00
10881;BME280;5493;48.884;8.338;2024-01-11T06:04:14;101362.69;;;-3.19;100.00
10881;BME280;5493;48.884;8.338;2024-01-11T06:06:41;101357.69;;;-2.98;100.00
10881;BME280;5493;48.884;8.338;2024-01-11T06:09:09;101359.28;;;-2.95;100.00
10881;BME280;5493;48.884;8.338;2024-01-11T06:11:36;101355.56;;;-3.18;100.00
10881;BME280;5493;48.884;8.338;2024-01-11T06:14:02;101357.50;;;-3.33;100.00
10881;BME280;5493;48.884;8.338;2024-01-11T06:16:29;101351.59;;;-3.24;100.00
10881;BME280;5493;48.884;8.338;2024-01-11T06:18:55;101359.91;;;-3.42;100.00
10881;BME280;5493;48.884;8.338;2024-01-11T06:21:22;101362.19;;;-3.51;100.00
10881;BME280;5493;48.884;8.338;2024-01-11T06:23:48;101357.50;;;-3.33;100.00
10881;BME280;5493;48.884;8.338;2024-01-11T06:26:16;101372.00;;;-3.53;100.00
10881;BME280;5493;48.884;8.338;2024-01-11T06:28:42;101369.00;;;-3.34;100.00
10881;BME280;5493;48.884;8.338;2024-01-11T06:31:09;101370.56;;;-3.44;100.00
10881;BME280;5493;48.884;8.338;2024-01-11T06:33:35;101370.22;;;-3.39;100.00
10881;BME280;5493;48.884;8.338;2024-01-11T06:36:04;101379.41;;;-3.45;100.00
10881;BME280;5493;48.884;8.338;2024-01-11T06:38:31;101375.41;;;-3.25;100.00
10881;BME280;5493;48.884;8.338;2024-01-11T06:40:57;101380.25;;;-3.44;100.00
10881;BME280;5493;48.884;8.338;2024-01-11T06:43:25;101381.53;;;-3.25;100.00
10881;BME280;5493;48.884;8.338;2024-01-11T06:45:53;101374.78;;;-3.04;100.00
10881;BME280;5493;48.884;8.338;2024-01-11T06:48:19;101376.59;;;-3.17;100.00
10881;BME280;5493;48.884;8.338;2024-01-11T06:50:45;101375.53;;;-3.14;100.00
10881;BME280;5493;48.884;8.338;2024-01-11T06:53:12;101380.69;;;-3.13;100.00
10881;BME280;5493;48.884;8.338;2024-01-11T06:55:38;101383.31;;;-3.25;100.00
10881;BME280;5493;48.884;8.338;2024-01-11T06:58:06;101382.72;;;-3.16;100.00
10881;BME280;5493;48.884;8.338;2024-01-11T07:00:34;101400.00;;;-3.25;100.00
10881;BME280;5493;48.884;8.338;2024-01-11T07:03:00;101395.69;;;-3.26;100.00
10881;BME280;5493;48.884;8.338;2024-01-11T07:05:28;101408.22;;;-3.17;100.00
10881;BME280;5493;48.884;8.338;2024-01-11T07:07:54;101409.25;;;-3.32;100.00
10881;BME280;5493;48.884;8.338;2024-01-11T07:10:21;101409.78;;;-3.39;100.00
10881;BME280;5493;48.884;8.338;2024-01-11T07:12:47;101406.84;;;-3.35;100.00
10881;BME280;5493;48.884;8.338;2024-01-11T07:15:14;101410.66;;;-3.26;100.00
10881;BME280;5493;48.884;8.338;2024-01-11T07:17:41;101417.53;;;-3.51;100.00
10881;BME280;5493;48.884;8.338;2024-01-11T07:20:09;101414.31;;;-3.29;100.00
10881;BME280;5493;48.884;8.338;2024-01-11T07:22:35;101415.09;;;-3.27;100.00
10881;BME280;5493;48.884;8.338;2024-01-11T07:25:02;101413.81;;;-3.21;100.00
10881;BME280;5493;48.884;8.338;2024-01-11T07:27:29;101424.16;;;-3.31;100.00
10881;BME280;5493;48.884;8.338;2024-01-11T07:29:55;101425.94;;;-3.31;100.00
10881;BME280;5493;48.884;8.338;2024-01-11T07:32:22;101424.69;;;-3.26;100.00
10881;BME280;5493;48.884;8.338;2024-01-11T07:34:50;101431.41;;;-3.22;100.00
10881;BME280;5493;48.884;8.338;2024-01-11T07:37:16;101432.59;;;-3.13;100.00
10881;BME280;5493;48.884;8.338;2024-01-11T07:39:43;101436.19;;;-3.27;100.00
10881;BME280;5493;48.884;8.338;2024-01-11T07:42:09;101451.06;;;-3.26;100.00
10881;BME280;5493;48.884;8.338;2024-01-11T07:44:35;101443.03;;;-3.37;100.00
10881;BME280;5493;48.884;8.338;2024-01-11T07:47:02;101437.53;;;-3.34;100.00
10881;BME280;5493;48.884;8.338;2024-01-11T07:49:29;101437.88;;;-3.26;100.00
10881;BME280;5493;48.884;8.338;2024-01-11T07:51:57;101447.56;;;-3.26;100.00
10881;BME280;5493;48.884;8.338;2024-01-11T07:54:23;101461.78;;;-3.29;100.00
10881;BME280;5493;48.884;8.338;2024-01-11T07:56:50;101461.84;;;-3.43;100.00
10881;BME280;5493;48.884;8.338;2024-01-11T07:59:16;101472.88;;;-3.36;100.00
10881;BME280;5493;48.884;8.338;2024-01-11T08:01:43;101470.38;;;-3.52;100.00
10881;BME280;5493;48.884;8.338;2024-01-11T08:04:10;101477.53;;;-3.54;100.00
10881;BME280;5493;48.884;8.338;2024-01-11T08:06:37;101469.06;;;-3.32;100.00
10881;BME280;5493;48.884;8.338;2024-01-11T08:09:04;101478.03;;;-3.35;100.00
10881;BME280;5493;48.884;8.338;2024-01-11T08:11:31;101478.88;;;-3.22;100.00
10881;BME280;5493;48.884;8.338;2024-01-11T08:13:58;101492.28;;;-3.25;100.00
10881;BME280;5493;48.884;8.338;2024-01-11T08:16:24;101496.09;;;-3.16;100.00
10881;BME280;5493;48.884;8.338;2024-01-11T08:18:51;101501.44;;;-3.30;100.00
10881;BME280;5493;48.884;8.338;2024-01-11T08:21:17;101499.81;;;-3.19;100.00
10881;BME280;5493;48.884;8.338;2024-01-11T08:23:44;101501.25;;;-3.27;100.00
10881;BME280;5493;48.884;8.338;2024-01-11T08:26:15;101496.19;;;-3.18;100.00
10881;BME280;5493;48.884;8.338;2024-01-11T08:28:44;101499.94;;;-3.08;100.00
10881;BME280;5493;48.884;8.338;2024-01-11T08:31:10;101496.44;;;-3.08;100.00
10881;BME280;5493;48.884;8.338;2024-01-11T08:33:37;101489.38;;;-2.95;100.00
10881;BME280;5493;48.884;8.338;2024-01-11T08:36:05;101494.38;;;-2.90;100.00
10881;BME280;5493;48.884;8.338;2024-01-11T08:38:32;101490.44;;;-2.85;100.00
10881;BME280;5493;48.884;8.338;2024-01-11T08:40:58;101496.06;;;-2.77;100.00
10881;BME280;5493;48.884;8.338;2024-01-11T08:43:27;101492.06;;;-2.70;100.00
10881;BME280;5493;48.884;8.338;2024-01-11T08:45:54;101484.66;;;-2.52;100.00
10881;BME280;5493;48.884;8.338;2024-01-11T08:48:20;101489.94;;;-2.65;100.00
10881;BME280;5493;48.884;8.338;2024-01-11T08:50:47;101495.22;;;-2.39;100.00
10881;BME280;5493;48.884;8.338;2024-01-11T08:53:13;101494.50;;;-2.54;100.00
10881;BME280;5493;48.884;8.338;2024-01-11T08:55:41;101500.38;;;-2.38;100.00
10881;BME280;5493;48.884;8.338;2024-01-11T08:58:08;101486.13;;;-2.35;100.00
10881;BME280;5493;48.884;8.338;2024-01-11T09:00:36;101477.66;;;-2.28;100.00
10881;BME280;5493;48.884;8.338;2024-01-11T09:03:04;101470.97;;;-2.08;100.00
10881;BME280;5493;48.884;8.338;2024-01-11T09:05:30;101474.94;;;-2.03;100.00
10881;BME280;5493;48.884;8.338;2024-01-11T09:07:57;101476.28;;;-1.84;100.00
10881;BME280;5493;48.884;8.338;2024-01-11T09:10:23;101477.41;;;-1.76;100.00
10881;BME280;5493;48.884;8.338;2024-01-11T09:12:50;101474.38;;;-1.82;100.00
10881;BME280;5493;48.884;8.338;2024-01-11T09:15:17;101493.19;;;-1.74;100.00
10881;BME280;5493;48.884;8.338;2024-01-11T09:17:45;101500.38;;;-1.76;100.00
10881;BME280;5493;48.884;8.338;2024-01-11T09:20:12;101486.44;;;-1.78;100.00
10881;BME280;5493;48.884;8.338;2024-01-11T09:22:39;101478.03;;;-1.72;100.00
10881;BME280;5493;48.884;8.338;2024-01-11T09:25:06;101481.22;;;-1.67;100.00
10881;BME280;5493;48.884;8.338;2024-01-11T09:27:33;101482.50;;;-1.49;100.00
10881;BME280;5493;48.884;8.338;2024-01-11T09:30:00;101478.53;;;-1.20;100.00
10881;BME280;5493;48.884;8.338;2024-01-11T09:32:27;101479.25;;;-1.18;100.00
10881;BME280;5493;48.884;8.338;2024-01-11T09:34:55;101489.84;;;-1.18;100.00
10881;BME280;5493;48.884;8.338;2024-01-11T09:37:22;101479.16;;;-1.16;100.00
10881;BME280;5493;48.884;8.338;2024-01-11T09:39:49;101481.50;;;-0.89;100.00
10881;BME280;5493;48.884;8.338;2024-01-11T09:42:18;101486.69;;;-0.88;100.00
10881;BME280;5493;48.884;8.338;2024-01-11T09:44:44;101485.84;;;-0.88;100.00
10881;BME280;5493;48.884;8.338;2024-01-11T09:47:13;101491.28;;;-0.79;100.00
10881;BME280;5493;48.884;8.338;2024-01-11T09:49:42;101497.91;;;-0.84;100.00
10881;BME280;5493;48.884;8.338;2024-01-11T09:52:11;101506.31;;;-0.79;100.00
10881;BME280;5493;48.884;8.338;2024-01-11T09:54:38;101494.56;;;-0.53;100.00
10881;BME280;5493;48.884;8.338;2024-01-11T09:57:06;101488.31;;;-0.52;100.00
10881;BME280;5493;48.884;8.338;2024-01-11T09:59:34;101493.88;;;-0.55;100.00
10881;BME280;5493;48.884;8.338;2024-01-11T10:02:02;101490.38;;;-0.56;100.00
10881;BME280;5493;48.884;8.338;2024-01-11T10:04:33;101486.28;;;-0.48;100.00
10881;BME280;5493;48.884;8.338;2024-01-11T10:07:00;101487.50;;;-0.19;100.00
10881;BME280;5493;48.884;8.338;2024-01-11T10:09:28;101485.56;;;-0.28;100.00
10881;BME280;5493;48.884;8.338;2024-01-11T10:11:55;101479.91;;;-0.35;100.00
10881;BME280;5493;48.884;8.338;2024-01-11T10:14:22;101473.75;;;-0.24;100.00
10881;BME280;5493;48.884;8.338;2024-01-11T10:16:48;101472.78;;;-0.23;100.00
10881;BME280;5493;48.884;8.338;2024-01-11T10:19:15;101473.41;;;-0.31;100.00
10881;BME280;5493;48.884;8.338;2024-01-11T10:21:42;101465.19;;;-0.06;100.00
10881;BME280;5493;48.884;8.338;2024-01-11T10:24:08;101460.75;;;-0.16;100.00
10881;BME280;5493;48.884;8.338;2024-01-11T10:26:37;101458.16;;;0.16;100.00
10881;BME280;5493;48.884;8.338;2024-01-11T10:29:05;101450.81;;;0.19;100.00
10881;BME280;5493;48.884;8.338;2024-01-11T10:31:36;101441.72;;;0.33;100.00
10881;BME280;5493;48.884;8.338;2024-01-11T10:34:03;101434.59;;;0.65;100.00
10881;BME280;5493;48.884;8.338;2024-01-11T10:36:30;101444.81;;;0.49;100.00
10881;BME280;5493;48.884;8.338;2024-01-11T10:38:57;101444.72;;;0.39;100.00
10881;BME280;5493;48.884;8.338;2024-01-11T10:41:29;101445.56;;;0.40;100.00
10881;BME280;5493;48.884;8.338;2024-01-11T10:44:01;101450.72;;;0.53;100.00
10881;BME280;5493;48.884;8.338;2024-01-11T10:46:28;101450.91;;;0.61;100.00
10881;BME280;5493;48.884;8.338;2024-01-11T10:48:59;101449.19;;;0.71;100.00
10881;BME280;5493;48.884;8.338;2024-01-11T10:51:32;101454.75;;;0.68;100.00
10881;BME280;5493;48.884;8.338;2024-01-11T10:53:59;101452.00;;;0.58;100.00
10881;BME280;5493;48.884;8.338;2024-01-11T10:56:27;101458.84;;;0.72;100.00
10881;BME280;5493;48.884;8.338;2024-01-11T10:58:55;101456.66;;;0.66;100.00
10881;BME280;5493;48.884;8.338;2024-01-11T11:01:23;101458.09;;;0.70;100.00
10881;BME280;5493;48.884;8.338;2024-01-11T11:03:52;101458.75;;;0.94;100.00
10881;BME280;5493;48.884;8.338;2024-01-11T11:06:20;101452.97;;;0.89;100.00
10881;BME280;5493;48.884;8.338;2024-01-11T11:08:50;101457.88;;;0.93;100.00
10881;BME280;5493;48.884;8.338;2024-01-11T11:11:19;101458.25;;;0.89;100.00
10881;BME280;5493;48.884;8.338;2024-01-11T11:13:47;101458.38;;;0.87;100.00
10881;BME280;5493;48.884;8.338;2024-01-11T11:16:14;101467.88;;;1.01;100.00
10881;BME280;5493;48.884;8.338;2024-01-11T11:18:42;101460.81;;;0.90;100.00
10881;BME280;5493;48.884;8.338;2024-01-11T11:21:09;101462.94;;;0.96;100.00
10881;BME280;5493;48.884;8.338;2024-01-11T11:23:37;101461.31;;;1.26;100.00
10881;BME280;5493;48.884;8.338;2024-01-11T11:26:06;101449.50;;;1.39;100.00
10881;BME280;5493;48.884;8.338;2024-01-11T11:28:33;101454.13;;;1.17;100.00
10881;BME280;5493;48.884;8.338;2024-01-11T11:31:02;101450.09;;;1.22;100.00
10881;BME280;5493;48.884;8.338;2024-01-11T11:33:29;101446.31;;;1.45;100.00
10881;BME280;5493;48.884;8.338;2024-01-11T11:35:58;101440.41;;;1.42;100.00
10881;BME280;5493;48.884;8.338;2024-01-11T11:38:26;101444.84;;;1.32;100.00
10881;BME280;5493;48.884;8.338;2024-01-11T11:40:54;101445.16;;;1.69;100.00
10881;BME280;5493;48.884;8.338;2024-01-11T11:43:22;101445.00;;;1.70;100.00
10881;BME280;5493;48.884;8.338;2024-01-11T11:45:49;101449.91;;;1.65;100.00
10881;BME280;5493;48.884;8.338;2024-01-11T11:48:48;101433.00;;;1.76;100.00
10881;BME280;5493;48.884;8.338;2024-01-11T11:51:16;101436.53;;;1.86;100.00
10881;BME280;5493;48.884;8.338;2024-01-11T11:53:45;101426.50;;;1.99;100.00
10881;BME280;5493;48.884;8.338;2024-01-11T11:56:12;101415.34;;;2.15;100.00
10881;BME280;5493;48.884;8.338;2024-01-11T11:58:42;101415.63;;;2.12;100.00
10881;BME280;5493;48.884;8.338;2024-01-11T12:01:09;101422.22;;;2.27;100.00
10881;BME280;5493;48.884;8.338;2024-01-11T12:03:36;101409.88;;;2.16;100.00
10881;BME280;5493;48.884;8.338;2024-01-11T12:06:04;101407.75;;;2.10;100.00
10881;BME280;5493;48.884;8.338;2024-01-11T12:08:33;101404.28;;;2.10;100.00
10881;BME280;5493;48.884;8.338;2024-01-11T12:10:59;101407.34;;;2.24;100.00
10881;BME280;5493;48.884;8.338;2024-01-11T12:13:26;101390.44;;;2.16;100.00
10881;BME280;5493;48.884;8.338;2024-01-11T12:15:55;101385.25;;;2.33;100.00
10881;BME280;5493;48.884;8.338;2024-01-11T12:18:21;101389.56;;;2.82;100.00
10881;BME280;5493;48.884;8.338;2024-01-11T12:20:48;101394.09;;;3.19;100.00
10881;BME280;5493;48.884;8.338;2024-01-11T12:23:14;101391.00;;;3.23;100.00
10881;BME280;5493;48.884;8.338;2024-01-11T12:25:44;101384.66;;;3.43;100.00
10881;BME280;5493;48.884;8.338;2024-01-11T12:28:11;101393.44;;;4.08;100.00
10881;BME280;5493;48.884;8.338;2024-01-11T12:30:38;101395.56;;;4.05;100.00
10881;BME280;5493;48.884;8.338;2024-01-11T12:33:05;101387.06;;;4.09;100.00
10881;BME280;5493;48.884;8.338;2024-01-11T12:35:32;101385.88;;;4.57;100.00
10881;BME280;5493;48.884;8.338;2024-01-11T12:37:59;101395.03;;;4.72;100.00
10881;BME280;5493;48.884;8.338;2024-01-11T12:40:27;101378.56;;;5.28;100.00
10881;BME280;5493;48.884;8.338;2024-01-11T12:42:56;101376.69;;;5.20;100.00
10881;BME280;5493;48.884;8.338;2024-01-11T12:45:24;101376.81;;;5.44;100.00
10881;BME280;5493;48.884;8.338;2024-01-11T12:47:51;101382.88;;;5.55;100.00
10881;BME280;5493;48.884;8.338;2024-01-11T12:50:18;101378.97;;;5.75;100.00
10881;BME280;5493;48.884;8.338;2024-01-11T12:52:45;101386.09;;;6.08;100.00